createdAt,value
2023-03-29T00:00:29.256Z,100.00
2023-03-29T00:01:35.516Z,100.00
2023-03-29T00:02:30.450Z,100.00
2023-03-29T00:03:17.977Z,100.00
2023-03-29T00:04:05.269Z,100.00
2023-03-29T00:04:53.818Z,100.00
2023-03-29T00:05:41.457Z,100.00
2023-03-29T00:06:33.348Z,100.00
2023-03-29T00:07:23.853Z,100.00
2023-03-29T00:08:14.853Z,100.00
2023-03-29T00:09:05.462Z,100.00
2023-03-29T00:09:53.098Z,100.00
2023-03-29T00:10:40.210Z,100.00
2023-03-29T00:11:27.862Z,100.00
2023-03-29T00:12:14.780Z,100.00
2023-03-29T00:13:02.459Z,100.00
2023-03-29T00:13:50.291Z,100.00
2023-03-29T00:14:37.253Z,100.00
2023-03-29T00:15:24.377Z,100.00
2023-03-29T00:16:13.177Z,100.00
2023-03-29T00:17:00.254Z,100.00
2023-03-29T00:17:47.312Z,100.00
2023-03-29T00:18:34.389Z,100.00
2023-03-29T00:19:21.631Z,100.00
2023-03-29T00:20:12.591Z,100.00
2023-03-29T00:21:00.450Z,100.00
2023-03-29T00:21:47.643Z,100.00
2023-03-29T00:22:34.608Z,100.00
2023-03-29T00:23:22.868Z,100.00
2023-03-29T00:24:09.875Z,100.00
2023-03-29T00:24:57.124Z,100.00
2023-03-29T00:25:47.188Z,100.00
2023-03-29T00:26:34.138Z,100.00
2023-03-29T00:27:22.242Z,100.00
2023-03-29T00:28:09.173Z,100.00
2023-03-29T00:28:56.133Z,100.00
2023-03-29T00:29:43.089Z,100.00
2023-03-29T00:30:30.142Z,100.00
2023-03-29T00:31:18.084Z,100.00
2023-03-29T00:32:05.383Z,100.00
2023-03-29T00:32:52.614Z,100.00
2023-03-29T00:33:40.571Z,100.00
2023-03-29T00:34:31.650Z,100.00
2023-03-29T00:35:18.870Z,100.00
2023-03-29T00:36:06.689Z,100.00
2023-03-29T00:36:58.421Z,100.00
2023-03-29T00:37:47.366Z,100.00
2023-03-29T00:38:34.706Z,100.00
2023-03-29T00:39:22.133Z,100.00
2023-03-29T00:40:11.289Z,100.00
2023-03-29T00:40:58.331Z,100.00
2023-03-29T00:41:47.068Z,100.00
2023-03-29T00:42:33.986Z,100.00
2023-03-29T00:43:21.037Z,100.00
2023-03-29T00:44:46.093Z,100.00
2023-03-29T00:45:36.081Z,100.00
2023-03-29T00:46:24.583Z,100.00
2023-03-29T00:47:11.703Z,100.00
2023-03-29T00:48:03.547Z,100.00
2023-03-29T00:48:53.810Z,100.00
2023-03-29T00:49:40.786Z,100.00
2023-03-29T00:50:41.428Z,100.00
2023-03-29T00:51:31.157Z,100.00
2023-03-29T00:52:21.609Z,100.00
2023-03-29T00:53:15.408Z,100.00
2023-03-29T00:54:04.377Z,100.00
2023-03-29T00:54:54.893Z,100.00
2023-03-29T00:56:14.263Z,100.00
2023-03-29T00:57:04.347Z,100.00
2023-03-29T00:57:52.577Z,100.00
2023-03-29T00:59:05.131Z,100.00
2023-03-29T00:59:52.409Z,100.00
2023-03-29T01:00:52.362Z,100.00
2023-03-29T01:01:44.155Z,100.00
2023-03-29T01:02:34.934Z,100.00
2023-03-29T01:03:26.178Z,100.00
2023-03-29T01:04:18.550Z,100.00
2023-03-29T01:05:09.978Z,100.00
2023-03-29T01:06:05.267Z,100.00
2023-03-29T01:06:58.632Z,100.00
2023-03-29T01:07:53.940Z,100.00
2023-03-29T01:08:45.895Z,100.00
2023-03-29T01:09:35.331Z,100.00
2023-03-29T01:10:30.813Z,100.00
2023-03-29T01:11:20.382Z,100.00
2023-03-29T01:12:21.510Z,100.00
2023-03-29T01:13:11.916Z,100.00
2023-03-29T01:14:04.023Z,100.00
2023-03-29T01:14:54.362Z,100.00
2023-03-29T01:15:44.493Z,100.00
2023-03-29T01:16:33.328Z,100.00
2023-03-29T01:17:22.091Z,100.00
2023-03-29T01:18:09.886Z,100.00
2023-03-29T01:18:58.528Z,100.00
2023-03-29T01:19:58.367Z,100.00
2023-03-29T01:21:07.428Z,100.00
2023-03-29T01:22:38.856Z,100.00
2023-03-29T01:23:27.196Z,100.00
2023-03-29T01:24:42.258Z,100.00
2023-03-29T01:25:48.490Z,100.00
2023-03-29T01:26:55.673Z,100.00
2023-03-29T01:28:02.686Z,100.00
2023-03-29T01:28:58.609Z,100.00
2023-03-29T01:30:01.312Z,100.00
2023-03-29T01:31:19.184Z,100.00
2023-03-29T01:32:17.471Z,100.00
2023-03-29T01:33:31.833Z,100.00
2023-03-29T01:34:30.853Z,100.00
2023-03-29T01:35:32.832Z,100.00
2023-03-29T01:36:35.310Z,100.00
2023-03-29T01:37:26.777Z,100.00
2023-03-29T01:38:15.695Z,100.00
2023-03-29T01:39:07.306Z,100.00
2023-03-29T01:39:54.391Z,100.00
2023-03-29T01:40:41.795Z,100.00
2023-03-29T01:42:04.302Z,100.00
2023-03-29T01:42:53.912Z,100.00
2023-03-29T01:43:56.099Z,100.00
2023-03-29T01:44:50.173Z,100.00
2023-03-29T01:45:49.670Z,100.00
2023-03-29T01:46:53.816Z,100.00
2023-03-29T01:47:58.973Z,100.00
2023-03-29T01:48:50.441Z,100.00
2023-03-29T01:49:42.496Z,100.00
2023-03-29T01:50:49.068Z,100.00
2023-03-29T01:51:39.152Z,100.00
2023-03-29T01:52:31.664Z,100.00
2023-03-29T01:53:40.864Z,100.00
2023-03-29T01:54:37.611Z,100.00
2023-03-29T01:55:27.795Z,100.00
2023-03-29T01:56:23.094Z,100.00
2023-03-29T01:57:10.964Z,100.00
2023-03-29T01:57:59.948Z,100.00
2023-03-29T01:58:51.481Z,100.00
2023-03-29T01:59:41.516Z,100.00
2023-03-29T02:00:29.738Z,100.00
2023-03-29T02:01:20.445Z,100.00
2023-03-29T02:02:08.451Z,100.00
2023-03-29T02:03:00.417Z,100.00
2023-03-29T02:03:51.025Z,100.00
2023-03-29T02:04:40.634Z,100.00
2023-03-29T02:05:29.249Z,100.00
2023-03-29T02:06:20.807Z,100.00
2023-03-29T02:07:09.168Z,100.00
2023-03-29T02:07:57.753Z,100.00
2023-03-29T02:08:45.480Z,100.00
2023-03-29T02:09:32.986Z,100.00
2023-03-29T02:10:21.021Z,100.00
2023-03-29T02:11:08.838Z,100.00
2023-03-29T02:11:59.270Z,100.00
2023-03-29T02:12:46.273Z,100.00
2023-03-29T02:13:33.522Z,100.00
2023-03-29T02:14:21.450Z,100.00
2023-03-29T02:15:16.814Z,100.00
2023-03-29T02:16:08.575Z,100.00
2023-03-29T02:16:55.575Z,100.00
2023-03-29T02:17:44.422Z,100.00
2023-03-29T02:18:31.619Z,100.00
2023-03-29T02:19:19.583Z,100.00
2023-03-29T02:20:14.782Z,100.00
2023-03-29T02:21:02.599Z,100.00
2023-03-29T02:22:08.655Z,100.00
2023-03-29T02:23:08.547Z,100.00
2023-03-29T02:23:56.269Z,100.00
2023-03-29T02:24:45.591Z,100.00
2023-03-29T02:25:32.837Z,100.00
2023-03-29T02:26:19.824Z,100.00
2023-03-29T02:27:06.817Z,100.00
2023-03-29T02:27:54.250Z,100.00
2023-03-29T02:28:42.248Z,100.00
2023-03-29T02:29:29.356Z,100.00
2023-03-29T02:30:17.911Z,100.00
2023-03-29T02:31:07.813Z,100.00
2023-03-29T02:32:10.698Z,100.00
2023-03-29T02:32:59.741Z,100.00
2023-03-29T02:34:11.555Z,100.00
2023-03-29T02:35:02.306Z,100.00
2023-03-29T02:35:53.504Z,100.00
2023-03-29T02:36:50.669Z,100.00
2023-03-29T02:37:41.231Z,100.00
2023-03-29T02:38:28.099Z,100.00
2023-03-29T02:39:16.903Z,100.00
2023-03-29T02:40:13.181Z,100.00
2023-03-29T02:41:00.964Z,100.00
2023-03-29T02:41:50.255Z,100.00
2023-03-29T02:42:37.697Z,100.00
2023-03-29T02:43:26.034Z,100.00
2023-03-29T02:44:15.723Z,100.00
2023-03-29T02:45:03.343Z,100.00
2023-03-29T02:45:50.734Z,100.00
2023-03-29T02:46:38.637Z,100.00
2023-03-29T02:47:31.633Z,100.00
2023-03-29T02:48:22.156Z,100.00
2023-03-29T02:49:10.620Z,100.00
2023-03-29T02:49:57.970Z,100.00
2023-03-29T02:50:48.246Z,100.00
2023-03-29T02:51:36.259Z,100.00
2023-03-29T02:52:27.707Z,100.00
2023-03-29T02:53:21.173Z,100.00
2023-03-29T02:54:13.637Z,100.00
2023-03-29T02:55:03.389Z,100.00
2023-03-29T02:55:50.402Z,100.00
2023-03-29T02:57:06.776Z,100.00
2023-03-29T02:57:53.778Z,100.00
2023-03-29T02:58:42.493Z,100.00
2023-03-29T02:59:30.302Z,100.00
2023-03-29T03:00:19.214Z,100.00
2023-03-29T03:01:07.230Z,100.00
2023-03-29T03:01:54.249Z,100.00
2023-03-29T03:02:42.030Z,100.00
2023-03-29T03:03:29.568Z,100.00
2023-03-29T03:04:19.135Z,100.00
2023-03-29T03:05:06.623Z,100.00
2023-03-29T03:05:54.159Z,100.00
2023-03-29T03:06:41.517Z,100.00
2023-03-29T03:07:28.938Z,100.00
2023-03-29T03:08:18.413Z,100.00
2023-03-29T03:09:06.338Z,100.00
2023-03-29T03:09:53.460Z,100.00
2023-03-29T03:10:41.223Z,100.00
2023-03-29T03:11:28.230Z,100.00
2023-03-29T03:12:15.149Z,100.00
2023-03-29T03:13:02.505Z,100.00
2023-03-29T03:13:49.561Z,100.00
2023-03-29T03:14:36.545Z,100.00
2023-03-29T03:15:23.457Z,100.00
2023-03-29T03:16:10.522Z,100.00
2023-03-29T03:16:58.144Z,100.00
2023-03-29T03:17:46.812Z,100.00
2023-03-29T03:18:34.097Z,100.00
2023-03-29T03:19:21.626Z,100.00
2023-03-29T03:20:13.326Z,100.00
2023-03-29T03:21:04.799Z,100.00
2023-03-29T03:21:52.064Z,100.00
2023-03-29T03:22:44.384Z,100.00
2023-03-29T03:23:31.377Z,100.00
2023-03-29T03:24:18.657Z,100.00
2023-03-29T03:25:06.061Z,100.00
2023-03-29T03:25:53.138Z,100.00
2023-03-29T03:26:40.093Z,100.00
2023-03-29T03:27:27.313Z,100.00
2023-03-29T03:28:14.289Z,100.00
2023-03-29T03:29:01.420Z,100.00
2023-03-29T03:29:48.833Z,100.00
2023-03-29T03:30:35.731Z,100.00
2023-03-29T03:31:22.826Z,100.00
2023-03-29T03:32:10.267Z,100.00
2023-03-29T03:32:57.337Z,100.00
2023-03-29T03:33:45.030Z,100.00
2023-03-29T03:34:31.906Z,100.00
2023-03-29T03:35:19.303Z,100.00
2023-03-29T03:36:07.139Z,100.00
2023-03-29T03:36:55.705Z,100.00
2023-03-29T03:37:43.461Z,100.00
2023-03-29T03:38:31.235Z,100.00
2023-03-29T03:39:18.497Z,100.00
2023-03-29T03:40:12.104Z,100.00
2023-03-29T03:40:59.958Z,100.00
2023-03-29T03:41:47.244Z,100.00
2023-03-29T03:42:34.175Z,100.00
2023-03-29T03:43:21.068Z,100.00
2023-03-29T03:44:08.085Z,100.00
2023-03-29T03:44:55.144Z,100.00
2023-03-29T03:45:43.259Z,100.00
2023-03-29T03:46:30.184Z,100.00
2023-03-29T03:47:17.185Z,100.00
2023-03-29T03:48:04.336Z,100.00
2023-03-29T03:48:51.722Z,100.00
2023-03-29T03:49:38.610Z,100.00
2023-03-29T03:50:25.682Z,100.00
2023-03-29T03:51:12.658Z,100.00
2023-03-29T03:52:00.138Z,100.00
2023-03-29T03:52:47.078Z,100.00
2023-03-29T03:53:34.395Z,100.00
2023-03-29T03:54:21.383Z,100.00
2023-03-29T03:55:09.579Z,100.00
2023-03-29T03:55:56.598Z,100.00
2023-03-29T03:56:43.741Z,100.00
2023-03-29T03:57:33.444Z,100.00
2023-03-29T03:58:20.985Z,100.00
2023-03-29T03:59:07.889Z,100.00
2023-03-29T03:59:54.834Z,100.00
2023-03-29T04:00:42.068Z,100.00
2023-03-29T04:01:29.370Z,100.00
2023-03-29T04:02:16.658Z,100.00
2023-03-29T04:03:06.452Z,100.00
2023-03-29T04:03:54.092Z,100.00
2023-03-29T04:04:41.548Z,100.00
2023-03-29T04:05:28.559Z,100.00
2023-03-29T04:06:15.633Z,100.00
2023-03-29T04:07:05.697Z,100.00
2023-03-29T04:07:52.843Z,100.00
2023-03-29T04:08:40.738Z,100.00
2023-03-29T04:09:27.721Z,100.00
2023-03-29T04:10:14.665Z,100.00
2023-03-29T04:11:01.913Z,100.00
2023-03-29T04:11:49.920Z,100.00
2023-03-29T04:12:37.563Z,100.00
2023-03-29T04:13:25.910Z,100.00
2023-03-29T04:14:12.847Z,100.00
2023-03-29T04:14:59.926Z,100.00
2023-03-29T04:15:50.973Z,100.00
2023-03-29T04:16:37.894Z,100.00
2023-03-29T04:17:24.850Z,100.00
2023-03-29T04:18:12.637Z,100.00
2023-03-29T04:18:59.696Z,100.00
2023-03-29T04:19:46.977Z,100.00
2023-03-29T04:20:33.935Z,100.00
2023-03-29T04:21:21.431Z,100.00
2023-03-29T04:22:08.455Z,100.00
2023-03-29T04:22:55.468Z,100.00
2023-03-29T04:23:43.335Z,100.00
2023-03-29T04:24:30.420Z,100.00
2023-03-29T04:25:18.232Z,100.00
2023-03-29T04:26:05.493Z,100.00
2023-03-29T04:26:52.457Z,100.00
2023-03-29T04:27:39.588Z,100.00
2023-03-29T04:28:26.600Z,100.00
2023-03-29T04:29:13.758Z,100.00
2023-03-29T04:30:00.676Z,100.00
2023-03-29T04:30:48.458Z,100.00
2023-03-29T04:31:35.500Z,100.00
2023-03-29T04:32:22.471Z,100.00
2023-03-29T04:33:10.594Z,100.00
2023-03-29T04:34:00.244Z,100.00
2023-03-29T04:34:47.464Z,100.00
2023-03-29T04:35:34.609Z,100.00
2023-03-29T04:36:21.761Z,100.00
2023-03-29T04:37:10.799Z,100.00
2023-03-29T04:37:57.761Z,100.00
2023-03-29T04:38:47.662Z,100.00
2023-03-29T04:39:35.144Z,100.00
2023-03-29T04:40:22.568Z,100.00
2023-03-29T04:41:09.639Z,100.00
2023-03-29T04:41:56.661Z,100.00
2023-03-29T04:42:45.019Z,100.00
2023-03-29T04:43:32.089Z,100.00
2023-03-29T04:44:19.111Z,100.00
2023-03-29T04:45:07.475Z,100.00
2023-03-29T04:45:55.477Z,100.00
2023-03-29T04:46:43.245Z,100.00
2023-03-29T04:47:31.490Z,100.00
2023-03-29T04:48:18.536Z,100.00
2023-03-29T04:49:06.090Z,100.00
2023-03-29T04:49:53.030Z,100.00
2023-03-29T04:50:40.293Z,100.00
2023-03-29T04:51:27.808Z,100.00
2023-03-29T04:52:14.973Z,100.00
2023-03-29T04:53:02.030Z,100.00
2023-03-29T04:53:53.108Z,100.00
2023-03-29T04:54:40.113Z,100.00
2023-03-29T04:55:27.116Z,100.00
2023-03-29T04:56:14.034Z,100.00
2023-03-29T04:57:01.050Z,100.00
2023-03-29T04:57:48.057Z,100.00
2023-03-29T04:58:35.050Z,100.00
2023-03-29T04:59:22.090Z,100.00
2023-03-29T05:00:15.510Z,100.00
2023-03-29T05:01:04.062Z,100.00
2023-03-29T05:01:51.339Z,100.00
2023-03-29T05:02:38.937Z,100.00
2023-03-29T05:03:27.254Z,100.00
2023-03-29T05:04:14.498Z,100.00
2023-03-29T05:05:01.618Z,100.00
2023-03-29T05:05:48.614Z,100.00
2023-03-29T05:06:35.686Z,100.00
2023-03-29T05:07:23.242Z,100.00
2023-03-29T05:08:10.925Z,100.00
2023-03-29T05:08:57.869Z,100.00
2023-03-29T05:09:45.571Z,100.00
2023-03-29T05:10:32.498Z,100.00
2023-03-29T05:11:20.121Z,100.00
2023-03-29T05:12:07.276Z,100.00
2023-03-29T05:12:54.566Z,100.00
2023-03-29T05:13:43.204Z,100.00
2023-03-29T05:14:30.963Z,100.00
2023-03-29T05:15:18.108Z,100.00
2023-03-29T05:16:06.040Z,100.00
2023-03-29T05:16:53.303Z,100.00
2023-03-29T05:17:41.067Z,100.00
2023-03-29T05:18:29.912Z,100.00
2023-03-29T05:19:17.063Z,100.00
2023-03-29T05:20:11.382Z,100.00
2023-03-29T05:21:00.013Z,100.00
2023-03-29T05:21:47.745Z,100.00
2023-03-29T05:22:34.795Z,100.00
2023-03-29T05:23:23.204Z,100.00
2023-03-29T05:24:11.253Z,100.00
2023-03-29T05:24:59.697Z,100.00
2023-03-29T05:25:50.330Z,100.00
2023-03-29T05:26:37.537Z,100.00
2023-03-29T05:27:25.060Z,100.00
2023-03-29T05:28:12.368Z,100.00
2023-03-29T05:28:59.593Z,100.00
2023-03-29T05:29:47.033Z,100.00
2023-03-29T05:30:34.095Z,100.00
2023-03-29T05:31:21.165Z,100.00
2023-03-29T05:32:08.800Z,100.00
2023-03-29T05:32:55.852Z,100.00
2023-03-29T05:33:43.159Z,100.00
2023-03-29T05:34:31.674Z,100.00
2023-03-29T05:35:19.230Z,100.00
2023-03-29T05:36:08.529Z,100.00
2023-03-29T05:36:57.072Z,100.00
2023-03-29T05:37:44.046Z,100.00
2023-03-29T05:38:33.016Z,100.00
2023-03-29T05:39:21.351Z,100.00
2023-03-29T05:40:10.634Z,100.00
2023-03-29T05:40:57.830Z,100.00
2023-03-29T05:41:44.884Z,100.00
2023-03-29T05:42:31.945Z,100.00
2023-03-29T05:43:19.004Z,100.00
2023-03-29T05:44:06.751Z,100.00
2023-03-29T05:44:54.725Z,100.00
2023-03-29T05:45:41.923Z,100.00
2023-03-29T05:46:28.973Z,100.00
2023-03-29T05:47:15.995Z,100.00
2023-03-29T05:48:04.182Z,100.00
2023-03-29T05:48:52.488Z,100.00
2023-03-29T05:49:39.840Z,98.97
2023-03-29T05:50:26.808Z,99.08
2023-03-29T05:51:13.844Z,98.75
2023-03-29T05:52:00.859Z,98.68
2023-03-29T05:52:48.070Z,98.22
2023-03-29T05:53:35.565Z,97.94
2023-03-29T05:54:23.463Z,97.72
2023-03-29T05:55:10.850Z,97.67
2023-03-29T05:55:58.042Z,97.10
2023-03-29T05:56:45.165Z,96.93
2023-03-29T05:57:32.090Z,96.83
2023-03-29T05:58:20.424Z,96.10
2023-03-29T05:59:08.676Z,95.98
2023-03-29T05:59:56.740Z,95.36
2023-03-29T06:00:44.066Z,95.37
2023-03-29T06:01:31.213Z,95.16
2023-03-29T06:02:19.056Z,95.13
2023-03-29T06:03:19.983Z,94.52
2023-03-29T06:04:08.168Z,94.69
2023-03-29T06:04:55.583Z,94.37
2023-03-29T06:05:42.650Z,94.29
2023-03-29T06:06:29.838Z,93.62
2023-03-29T06:07:16.952Z,94.50
2023-03-29T06:08:04.280Z,94.83
2023-03-29T06:08:51.442Z,94.64
2023-03-29T06:09:40.007Z,94.22
2023-03-29T06:10:27.436Z,94.38
2023-03-29T06:11:16.004Z,94.37
2023-03-29T06:12:03.133Z,94.28
2023-03-29T06:12:50.517Z,94.30
2023-03-29T06:13:39.221Z,94.16
2023-03-29T06:14:27.481Z,94.09
2023-03-29T06:15:16.248Z,93.92
2023-03-29T06:16:04.540Z,93.73
2023-03-29T06:16:52.079Z,94.57
2023-03-29T06:17:40.240Z,94.32
2023-03-29T06:18:28.337Z,94.62
2023-03-29T06:19:15.561Z,95.32
2023-03-29T06:20:05.128Z,96.32
2023-03-29T06:20:53.209Z,96.61
2023-03-29T06:21:41.554Z,97.47
2023-03-29T06:22:28.746Z,96.79
2023-03-29T06:23:15.892Z,96.67
2023-03-29T06:24:03.241Z,97.09
2023-03-29T06:24:50.496Z,97.95
2023-03-29T06:25:37.558Z,98.66
2023-03-29T06:26:25.366Z,97.66
2023-03-29T06:27:12.678Z,97.34
2023-03-29T06:27:59.992Z,96.70
2023-03-29T06:28:49.835Z,97.05
2023-03-29T06:29:38.642Z,97.03
2023-03-29T06:30:26.233Z,96.32
2023-03-29T06:31:13.480Z,96.58
2023-03-29T06:32:00.565Z,95.80
2023-03-29T06:32:49.779Z,95.48
2023-03-29T06:33:38.478Z,95.20
2023-03-29T06:34:25.757Z,95.03
2023-03-29T06:35:12.895Z,95.26
2023-03-29T06:36:00.153Z,95.21
2023-03-29T06:36:47.908Z,94.39
2023-03-29T06:37:35.119Z,94.00
2023-03-29T06:38:22.909Z,92.95
2023-03-29T06:39:10.246Z,93.20
2023-03-29T06:39:57.442Z,92.09
2023-03-29T06:40:45.056Z,91.19
2023-03-29T06:41:32.124Z,90.19
2023-03-29T06:42:21.512Z,90.23
2023-03-29T06:43:09.433Z,89.71
2023-03-29T06:43:56.560Z,90.11
2023-03-29T06:44:43.944Z,89.29
2023-03-29T06:45:38.319Z,89.27
2023-03-29T06:46:25.623Z,89.26
2023-03-29T06:47:13.862Z,88.97
2023-03-29T06:48:01.038Z,89.17
2023-03-29T06:48:48.596Z,89.67
2023-03-29T06:49:35.742Z,89.96
2023-03-29T06:50:23.785Z,90.05
2023-03-29T06:51:11.911Z,89.71
2023-03-29T06:52:00.401Z,88.83
2023-03-29T06:52:48.187Z,88.64
2023-03-29T06:53:35.827Z,88.48
2023-03-29T06:54:23.149Z,88.02
2023-03-29T06:55:12.155Z,84.80
2023-03-29T06:56:00.005Z,82.90
2023-03-29T06:56:47.754Z,82.66
2023-03-29T06:57:34.957Z,81.81
2023-03-29T06:58:22.233Z,77.59
2023-03-29T06:59:09.722Z,78.37
2023-03-29T06:59:56.833Z,78.87
2023-03-29T07:00:43.960Z,79.63
2023-03-29T07:01:31.434Z,79.61
2023-03-29T07:02:18.611Z,76.06
2023-03-29T07:03:10.114Z,77.02
2023-03-29T07:03:57.969Z,76.37
2023-03-29T07:04:45.494Z,75.84
2023-03-29T07:05:33.767Z,73.14
2023-03-29T07:06:21.065Z,72.31
2023-03-29T07:07:12.598Z,69.56
2023-03-29T07:08:17.586Z,69.28
2023-03-29T07:09:06.999Z,67.69
2023-03-29T07:09:56.738Z,67.12
2023-03-29T07:10:47.680Z,64.10
2023-03-29T07:11:36.155Z,64.82
2023-03-29T07:12:23.473Z,63.87
2023-03-29T07:13:15.111Z,64.96
2023-03-29T07:14:05.672Z,65.50
2023-03-29T07:14:53.844Z,64.18
2023-03-29T07:15:41.928Z,65.28
2023-03-29T07:16:29.252Z,62.66
2023-03-29T07:17:17.035Z,63.55
2023-03-29T07:18:05.114Z,63.45
2023-03-29T07:18:52.409Z,63.07
2023-03-29T07:19:39.695Z,63.71
2023-03-29T07:20:27.375Z,64.65
2023-03-29T07:21:14.610Z,63.69
2023-03-29T07:22:01.894Z,63.56
2023-03-29T07:22:51.571Z,64.29
2023-03-29T07:23:39.788Z,59.37
2023-03-29T07:24:26.872Z,59.02
2023-03-29T07:25:14.373Z,57.90
2023-03-29T07:26:02.910Z,57.03
2023-03-29T07:27:03.390Z,56.96
2023-03-29T07:27:54.914Z,49.93
2023-03-29T07:28:43.510Z,49.83
2023-03-29T07:29:30.771Z,51.56
2023-03-29T07:30:19.972Z,51.24
2023-03-29T07:31:11.355Z,51.81
2023-03-29T07:31:58.475Z,52.15
2023-03-29T07:32:46.925Z,50.89
2023-03-29T07:33:34.808Z,51.16
2023-03-29T07:34:22.971Z,51.52
2023-03-29T07:35:11.143Z,51.40
2023-03-29T07:35:59.580Z,51.60
2023-03-29T07:36:48.098Z,51.05
2023-03-29T07:37:37.745Z,50.46
2023-03-29T07:38:25.593Z,47.70
2023-03-29T07:39:15.932Z,46.73
2023-03-29T07:40:09.689Z,46.64
2023-03-29T07:40:56.845Z,46.72
2023-03-29T07:41:44.075Z,46.51
2023-03-29T07:42:31.214Z,47.08
2023-03-29T07:43:18.617Z,47.16
2023-03-29T07:44:09.296Z,47.41
2023-03-29T07:44:56.231Z,47.01
2023-03-29T07:45:45.039Z,46.36
2023-03-29T07:46:32.043Z,46.38
2023-03-29T07:47:21.156Z,45.56
2023-03-29T07:48:08.846Z,45.71
2023-03-29T07:48:56.994Z,45.80
2023-03-29T07:49:44.287Z,46.03
2023-03-29T07:50:32.784Z,46.46
2023-03-29T07:51:19.835Z,45.29
2023-03-29T07:52:07.404Z,43.65
2023-03-29T07:52:54.586Z,43.38
2023-03-29T07:53:41.765Z,43.61
2023-03-29T07:54:29.004Z,43.15
2023-03-29T07:55:16.882Z,43.95
2023-03-29T07:56:05.027Z,43.64
2023-03-29T07:56:52.120Z,43.95
2023-03-29T07:57:39.248Z,44.42
2023-03-29T07:58:26.225Z,43.99
2023-03-29T07:59:13.768Z,43.89
2023-03-29T08:00:00.833Z,44.35
2023-03-29T08:00:49.680Z,43.32
2023-03-29T08:01:36.790Z,43.16
2023-03-29T08:02:23.926Z,43.51
2023-03-29T08:03:13.849Z,44.75
2023-03-29T08:04:01.214Z,45.48
2023-03-29T08:04:48.439Z,44.78
2023-03-29T08:05:41.450Z,43.62
2023-03-29T08:06:29.272Z,43.21
2023-03-29T08:07:19.484Z,44.34
2023-03-29T08:08:07.278Z,42.15
2023-03-29T08:08:54.430Z,42.08
2023-03-29T08:09:41.482Z,41.86
2023-03-29T08:10:28.837Z,41.41
2023-03-29T08:11:15.916Z,41.31
2023-03-29T08:12:03.065Z,41.13
2023-03-29T08:12:51.064Z,40.83
2023-03-29T08:13:38.040Z,40.81
2023-03-29T08:14:25.305Z,41.26
2023-03-29T08:15:13.636Z,38.45
2023-03-29T08:16:00.643Z,38.67
2023-03-29T08:16:47.982Z,39.39
2023-03-29T08:17:36.533Z,39.68
2023-03-29T08:18:23.594Z,39.99
2023-03-29T08:19:10.808Z,39.56
2023-03-29T08:19:57.911Z,38.51
2023-03-29T08:20:45.139Z,39.43
2023-03-29T08:21:32.415Z,38.50
2023-03-29T08:22:19.658Z,38.19
2023-03-29T08:23:06.953Z,37.18
2023-03-29T08:23:54.002Z,36.86
2023-03-29T08:24:41.787Z,37.52
2023-03-29T08:25:28.796Z,38.27
2023-03-29T08:26:16.366Z,37.98
2023-03-29T08:27:05.036Z,38.10
2023-03-29T08:27:52.205Z,37.66
2023-03-29T08:28:39.839Z,38.30
2023-03-29T08:29:27.833Z,38.40
2023-03-29T08:30:15.951Z,38.39
2023-03-29T08:31:03.347Z,37.54
2023-03-29T08:31:50.580Z,37.73
2023-03-29T08:32:38.708Z,37.58
2023-03-29T08:33:25.862Z,36.51
2023-03-29T08:34:13.770Z,36.02
2023-03-29T08:35:04.167Z,36.48
2023-03-29T08:35:51.316Z,36.59
2023-03-29T08:36:38.402Z,37.17
2023-03-29T08:37:26.157Z,36.51
2023-03-29T08:38:13.256Z,36.58
2023-03-29T08:39:02.241Z,37.58
2023-03-29T08:39:49.608Z,37.75
2023-03-29T08:40:37.110Z,36.18
2023-03-29T08:41:30.390Z,37.83
2023-03-29T08:42:45.249Z,37.14
2023-03-29T08:43:53.341Z,37.22
2023-03-29T08:44:54.207Z,37.65
2023-03-29T08:46:00.425Z,37.00
2023-03-29T08:47:19.600Z,37.40
2023-03-29T08:48:12.868Z,37.74
2023-03-29T08:49:02.937Z,38.26
2023-03-29T08:49:53.859Z,37.98
2023-03-29T08:50:48.251Z,38.14
2023-03-29T08:51:58.159Z,38.04
2023-03-29T08:52:55.009Z,38.51
2023-03-29T08:53:48.690Z,39.83
2023-03-29T08:54:42.015Z,39.79
2023-03-29T08:55:43.529Z,39.25
2023-03-29T08:56:34.454Z,39.41
2023-03-29T08:57:29.769Z,39.54
2023-03-29T08:58:19.592Z,39.77
2023-03-29T08:59:17.682Z,39.39
2023-03-29T09:00:14.275Z,38.92
2023-03-29T09:01:03.125Z,39.29
2023-03-29T09:01:55.492Z,39.43
2023-03-29T09:02:44.299Z,39.44
2023-03-29T09:03:45.397Z,39.63
2023-03-29T09:04:38.152Z,38.56
2023-03-29T09:05:34.756Z,38.83
2023-03-29T09:06:22.389Z,39.53
2023-03-29T09:07:10.405Z,39.30
2023-03-29T09:07:57.635Z,38.00
2023-03-29T09:08:46.966Z,38.28
2023-03-29T09:09:35.014Z,38.56
2023-03-29T09:10:27.592Z,39.43
2023-03-29T09:11:23.275Z,39.82
2023-03-29T09:12:29.056Z,38.82
2023-03-29T09:13:32.730Z,38.10
2023-03-29T09:14:35.016Z,38.07
2023-03-29T09:15:31.298Z,37.51
2023-03-29T09:16:29.602Z,37.54
2023-03-29T09:17:37.288Z,37.55
2023-03-29T09:18:35.406Z,37.82
2023-03-29T09:19:36.071Z,36.64
2023-03-29T09:20:28.134Z,37.44
2023-03-29T09:21:26.956Z,37.99
2023-03-29T09:22:55.675Z,39.17
2023-03-29T09:24:21.200Z,38.11
2023-03-29T09:25:29.704Z,38.53
2023-03-29T09:26:36.207Z,37.37
2023-03-29T09:27:32.603Z,37.31
2023-03-29T09:28:22.396Z,36.89
2023-03-29T09:29:38.443Z,36.69
2023-03-29T09:30:29.952Z,37.02
2023-03-29T09:31:27.879Z,36.58
2023-03-29T09:32:22.760Z,36.86
2023-03-29T09:33:37.600Z,34.95
2023-03-29T09:34:32.154Z,35.05
2023-03-29T09:35:32.624Z,35.42
2023-03-29T09:36:28.666Z,36.00
2023-03-29T09:37:23.060Z,35.25
2023-03-29T09:38:11.866Z,35.14
2023-03-29T09:38:59.480Z,34.45
2023-03-29T09:39:46.552Z,33.61
2023-03-29T09:40:40.404Z,33.84
2023-03-29T09:41:37.058Z,33.03
2023-03-29T09:42:24.698Z,33.26
2023-03-29T09:43:27.694Z,33.40
2023-03-29T09:44:30.268Z,34.17
2023-03-29T09:45:19.461Z,34.50
2023-03-29T09:46:36.762Z,35.80
2023-03-29T09:47:27.784Z,34.80
2023-03-29T09:48:16.549Z,34.56
2023-03-29T09:49:05.987Z,34.81
2023-03-29T09:49:57.807Z,34.19
2023-03-29T09:50:51.425Z,34.51
2023-03-29T09:51:39.201Z,34.58
2023-03-29T09:52:26.472Z,33.82
2023-03-29T09:53:16.059Z,33.31
2023-03-29T09:54:03.518Z,34.00
2023-03-29T09:54:50.507Z,33.46
2023-03-29T09:55:39.921Z,33.34
2023-03-29T09:56:28.386Z,33.64
2023-03-29T09:57:20.007Z,34.04
2023-03-29T09:58:28.056Z,34.12
2023-03-29T09:59:15.635Z,33.78
2023-03-29T10:00:06.091Z,34.28
2023-03-29T10:00:58.450Z,33.02
2023-03-29T10:01:46.751Z,32.30
2023-03-29T10:02:34.481Z,32.35
2023-03-29T10:03:25.494Z,32.16
2023-03-29T10:04:14.292Z,32.52
2023-03-29T10:05:07.125Z,31.91
2023-03-29T10:05:55.852Z,31.94
2023-03-29T10:06:55.285Z,32.35
2023-03-29T10:07:49.319Z,33.16
2023-03-29T10:08:51.906Z,33.36
2023-03-29T10:09:41.071Z,32.98
2023-03-29T10:10:27.942Z,33.51
2023-03-29T10:11:35.774Z,33.37
2023-03-29T10:12:24.647Z,33.12
2023-03-29T10:13:24.203Z,32.27
2023-03-29T10:14:20.772Z,32.76
2023-03-29T10:15:16.733Z,32.87
2023-03-29T10:16:21.223Z,32.23
2023-03-29T10:17:21.348Z,32.59
2023-03-29T10:18:13.582Z,32.81
2023-03-29T10:19:27.813Z,32.41
2023-03-29T10:20:18.846Z,32.54
2023-03-29T10:21:07.539Z,33.46
2023-03-29T10:21:56.441Z,33.35
2023-03-29T10:22:52.234Z,32.48
2023-03-29T10:23:40.423Z,31.94
2023-03-29T10:24:29.869Z,31.67
2023-03-29T10:25:19.931Z,31.79
2023-03-29T10:26:11.890Z,32.16
2023-03-29T10:27:02.616Z,32.15
2023-03-29T10:27:49.686Z,32.48
2023-03-29T10:28:38.380Z,32.82
2023-03-29T10:29:26.861Z,32.54
2023-03-29T10:30:27.285Z,32.45
2023-03-29T10:31:20.148Z,33.16
2023-03-29T10:32:35.785Z,32.30
2023-03-29T10:33:30.177Z,32.45
2023-03-29T10:34:19.274Z,31.37
2023-03-29T10:35:14.539Z,32.12
2023-03-29T10:36:05.386Z,32.66
2023-03-29T10:37:01.404Z,32.88
2023-03-29T10:37:53.303Z,33.01
2023-03-29T10:38:40.396Z,32.48